aviador You're here:

LEVC Decoded Metar

VALENCIA in SPAIN
Report Time2015-08-30 13:30:00
UTC Time2015-08-30 13:52:38
Flight Rules vfr VFR
Wind090° at 09 kt
W.Decomp.*RWY 12: 7.9 kt HW 4.4 kt LCW
W.Rank090° ranks 8
Current wind is above 090° avg. (7.1)
Visibility9999 m
Phenomena:N/A
Clouds:Few 030 Hf
Expected CloudBase > 4,400 ft AGL from Temp-Dew spread
CeilingNone
Temp30°C (ISA +15)
Dew Point19°C (52% RH)
Heat Index31.4°C
QNH1018 hPa
Density Alt2,093 ft
Elevation203 ft
Report Wrong Elevation
Raw Report
METAR LEVC 301330Z 09009KT 060V130 9999 FEW030 30/19 Q1018 NOSIG=

Extra information for LEVC:More info

Metar Taf Metar & Taf Last 4 Metars F.Rules Stats Wind Profile Meteogram Temp Stats Airport Information Weather charts Add Link Nearby VenuesMetar ALERT Operation Metar Decoded Social comments

Webcam Valencia